Time;durP1;ratioP1;P1;durP2;ratioP2;P2;SDS_P1;SDS_P2;PMS_P1;PMS_P2;Temp;Humidity;BMP_temperature;BMP_pressure;BME280_temperature;BME280_humidity;BME280_pressure;Samples;Min_cycle;Max_cycle;Signal;HPM_P1;HPM_P2
2021/04/12 00:00:20;;;;;;;6.28;5.68;;;;;;;5.90;87.32;100787.09;3573332;40;20051;-52
2021/04/12 00:02:49;;;;;;;9.32;6.47;;;;;;;5.60;88.37;100782.34;3572441;40;20358;-51
2021/04/12 00:05:41;;;;;;;6.30;5.70;;;;;;;5.83;87.18;100785.97;3573232;40;20314;-52
2021/04/12 00:08:49;;;;;;;6.03;5.43;;;;;;;5.94;87.09;100799.19;3565602;40;20073;-51
2021/04/12 00:11:21;;;;;;;7.07;6.45;;;;;;;5.60;87.84;100800.13;3552289;40;20060;-53
2021/04/12 00:14:04;;;;;;;6.53;5.93;;;;;;;5.57;88.27;100794.03;3563464;40;20415;-47
2021/04/12 00:16:38;;;;;;;6.55;5.82;;;;;;;5.44;88.94;100786.63;3567418;40;20048;-52
2021/04/12 00:19:52;;;;;;;6.25;5.65;;;;;;;5.49;88.12;100793.66;3572620;40;20057;-51
2021/04/12 00:22:36;;;;;;;5.95;5.35;;;;;;;5.27;89.38;100789.22;3566649;40;20077;-47
2021/04/12 00:25:16;;;;;;;5.65;5.00;;;;;;;5.73;87.10;100787.97;3572228;40;20051;-52
2021/04/12 00:27:49;;;;;;;5.28;4.72;;;;;;;5.55;87.60;100798.19;3572015;40;20057;-55
2021/04/12 00:30:20;;;;;;;5.78;5.03;;;;;;;5.35;89.60;100805.69;3572957;40;20037;-47
2021/04/12 00:32:53;;;;;;;5.22;4.72;;;;;;;5.66;87.53;100803.75;3572011;40;20192;-48
2021/04/12 00:35:46;;;;;;;7.43;4.90;;;;;;;5.53;88.39;100820.06;3572742;40;20041;-51
2021/04/12 00:38:19;;;;;;;5.30;4.72;;;;;;;5.39;87.88;100827.03;3569398;40;20463;-53
2021/04/12 00:41:16;;;;;;;5.60;5.10;;;;;;;5.37;88.49;100833.72;3572337;40;20063;-46
2021/04/12 00:43:56;;;;;;;5.82;4.70;;;;;;;5.36;87.56;100831.94;3572011;40;20093;-54
2021/04/12 00:47:05;;;;;;;5.25;4.75;;;;;;;5.32;86.67;100830.94;3572698;40;20081;-47
2021/04/12 00:49:41;;;;;;;4.57;4.18;;;;;;;5.39;86.43;100844.78;3568921;40;20425;-51
2021/04/12 00:52:36;;;;;;;4.20;3.90;;;;;;;5.13;87.29;100851.16;3568924;40;20048;-51
2021/04/12 00:55:23;;;;;;;5.05;4.38;;;;;;;5.20;87.92;100844.69;3572180;40;20347;-48
2021/04/12 00:58:08;;;;;;;4.28;3.88;;;;;;;5.28;85.88;100845.94;3571791;40;20065;-54
2021/04/12 01:00:40;;;;;;;4.93;4.43;;;;;;;4.99;87.51;100863.16;3572116;40;20049;-46
2021/04/12 01:03:26;;;;;;;6.35;4.43;;;;;;;5.19;86.17;100864.13;3559515;40;20430;-47
2021/04/12 01:06:11;;;;;;;4.93;4.53;;;;;;;5.04;88.15;100871.84;3571386;40;20056;-48
2021/04/12 01:09:45;;;;;;;4.15;3.85;;;;;;;4.89;87.80;100871.06;3572287;40;20100;-54
2021/04/12 01:12:30;;;;;;;4.00;3.70;;;;;;;4.84;87.47;100888.56;3532964;40;20073;-49
2021/04/12 01:15:19;;;;;;;4.28;3.88;;;;;;;4.83;86.63;100894.44;3538985;40;20158;-46
2021/04/12 01:18:19;;;;;;;4.45;4.03;;;;;;;5.03;85.15;100899.69;3563020;40;20077;-48
2021/04/12 01:21:04;;;;;;;4.80;4.40;;;;;;;5.01;83.93;100912.28;3571799;40;20057;-46
2021/04/12 01:24:00;;;;;;;4.65;4.25;;;;;;;4.75;86.25;100905.00;3572520;40;20351;-50
2021/04/12 01:26:42;;;;;;;4.28;3.90;;;;;;;4.79;86.44;100901.81;3567694;40;20093;-51
2021/04/12 01:29:36;;;;;;;4.97;4.55;;;;;;;4.85;86.26;100908.09;3572297;40;20081;-50
2021/04/12 01:32:29;;;;;;;4.38;3.97;;;;;;;4.77;87.15;100911.91;3571794;40;20081;-53
2021/04/12 01:35:17;;;;;;;4.95;4.45;;;;;;;5.10;85.91;100934.75;3571388;40;20089;-47
2021/04/12 01:37:52;;;;;;;5.35;4.78;;;;;;;4.94;87.08;100932.19;3572281;40;20061;-46
2021/04/12 01:40:33;;;;;;;6.00;5.10;;;;;;;5.06;87.27;100940.44;3572136;40;20088;-53
2021/04/12 01:43:14;;;;;;;5.68;4.90;;;;;;;4.90;88.72;100933.72;3571807;40;20053;-47
2021/04/12 01:45:52;;;;;;;5.53;4.97;;;;;;;4.91;88.76;100934.59;3571962;40;20076;-53
2021/04/12 01:48:57;;;;;;;5.68;5.18;;;;;;;4.96;87.62;100939.09;3569435;40;20069;-52
2021/04/12 01:51:45;;;;;;;5.88;4.85;;;;;;;5.02;88.11;100936.88;3567201;40;20108;-49
2021/04/12 01:54:55;;;;;;;5.30;4.70;;;;;;;4.97;88.54;100933.22;3565338;40;20033;-54
2021/04/12 01:57:39;;;;;;;5.43;4.90;;;;;;;4.92;89.51;100928.72;3571762;40;20076;-48
2021/04/12 02:00:33;;;;;;;5.85;4.85;;;;;;;4.90;89.28;100927.75;3571981;40;20085;-47
2021/04/12 02:03:09;;;;;;;6.25;4.63;;;;;;;4.51;91.42;100932.47;3571601;40;20057;-48
2021/04/12 02:05:52;;;;;;;6.20;5.25;;;;;;;4.84;90.38;100946.94;3572053;40;20544;-53
2021/04/12 02:08:34;;;;;;;5.15;4.57;;;;;;;4.71;89.89;100944.53;3569398;40;20053;-48
2021/04/12 02:11:22;;;;;;;5.40;4.90;;;;;;;4.72;89.74;100958.13;3571453;40;20049;-48
2021/04/12 02:14:16;;;;;;;5.40;4.72;;;;;;;4.53;90.40;100947.00;3571173;40;20057;-54
2021/04/12 02:16:46;;;;;;;5.07;4.57;;;;;;;4.22;91.37;100939.38;3571467;40;20634;-48
2021/04/12 02:19:30;;;;;;;6.22;5.28;;;;;;;4.59;92.01;100944.78;3572030;40;20075;-47
2021/04/12 02:22:18;;;;;;;5.22;4.72;;;;;;;4.69;89.16;100942.72;3571724;40;20054;-55
2021/04/12 02:25:29;;;;;;;7.10;5.45;;;;;;;4.40;91.56;100946.25;3571640;40;20057;-48
2021/04/12 02:27:58;;;;;;;6.22;5.50;;;;;;;4.40;91.25;100942.03;3571468;40;20186;-50
2021/04/12 02:30:34;;;;;;;5.55;4.80;;;;;;;4.47;92.29;100945.75;3571866;40;20049;-48
2021/04/12 02:33:27;;;;;;;5.78;5.28;;;;;;;4.39;90.75;100950.44;3572092;40;20333;-51
2021/04/12 02:36:21;;;;;;;5.75;4.75;;;;;;;4.56;91.02;100962.34;3572434;40;20049;-46
2021/04/12 02:39:20;;;;;;;5.53;4.90;;;;;;;4.50;91.88;100963.69;3571074;40;20084;-51
2021/04/12 02:42:05;;;;;;;5.57;5.05;;;;;;;4.30;91.68;100957.53;3560502;40;20518;-46
2021/04/12 02:44:54;;;;;;;6.85;5.63;;;;;;;4.23;93.54;100957.97;3572554;40;20065;-52
2021/04/12 02:47:48;;;;;;;5.40;4.55;;;;;;;4.34;92.45;100967.94;3573646;40;20060;-48
2021/04/12 02:50:43;;;;;;;4.80;4.40;;;;;;;4.34;91.78;100965.41;3566785;40;20057;-48
2021/04/12 02:53:13;;;;;;;5.90;4.70;;;;;;;4.36;93.41;100968.00;3573373;40;20382;-52
2021/04/12 02:55:42;;;;;;;8.73;5.05;;;;;;;4.17;94.19;100975.38;3573245;40;20068;-48
2021/04/12 02:58:14;;;;;;;6.53;5.30;;;;;;;4.25;95.72;100977.56;3567045;40;20758;-50
2021/04/12 03:01:01;;;;;;;5.82;5.22;;;;;;;4.21;95.35;100980.72;3573242;40;20072;-47
2021/04/12 03:03:58;;;;;;;6.68;5.70;;;;;;;4.16;96.24;100987.19;3569652;40;20424;-50
2021/04/12 03:07:00;;;;;;;7.22;5.28;;;;;;;3.97;95.00;100990.31;3571597;40;20625;-47
2021/04/12 03:10:04;;;;;;;6.47;5.80;;;;;;;4.25;95.55;100964.91;3569077;40;20100;-46
2021/04/12 03:12:50;;;;;;;7.20;5.35;;;;;;;4.19;94.67;100963.66;3569764;40;20056;-46
2021/04/12 03:15:38;;;;;;;6.50;5.90;;;;;;;3.87;94.52;100959.31;3567843;40;20060;-46
2021/04/12 03:18:20;;;;;;;7.07;5.82;;;;;;;3.87;95.56;100960.19;3571113;40;20061;-46
2021/04/12 03:20:52;;;;;;;7.25;5.32;;;;;;;4.01;95.23;100968.56;3572976;40;20068;-51
2021/04/12 03:23:51;;;;;;;6.97;6.00;;;;;;;3.82;97.40;100967.53;3573610;40;20076;-51
2021/04/12 03:26:47;;;;;;;7.03;6.32;;;;;;;3.89;97.92;100978.91;3568212;40;20104;-53
2021/04/12 03:29:27;;;;;;;9.25;6.70;;;;;;;3.87;96.82;100979.59;3570807;40;20073;-53
2021/04/12 03:32:12;;;;;;;7.72;6.80;;;;;;;3.69;99.29;100981.94;3573282;40;20069;-48
2021/04/12 03:35:20;;;;;;;8.10;5.85;;;;;;;3.65;99.30;100973.31;3573254;40;20049;-46
2021/04/12 03:38:25;;;;;;;6.18;5.57;;;;;;;3.60;99.97;100994.06;3564905;40;20060;-53
2021/04/12 03:41:13;;;;;;;8.43;6.13;;;;;;;4.24;99.08;100987.59;3572801;40;20053;-46
2021/04/12 03:43:52;;;;;;;11.90;8.90;;;;;;;4.00;98.19;100985.44;3572648;40;20673;-49
2021/04/12 03:46:37;;;;;;;7.88;6.32;;;;;;;4.29;95.78;100996.34;3571075;40;20104;-53
2021/04/12 03:49:48;;;;;;;7.32;5.85;;;;;;;4.46;94.91;100997.28;3572956;40;20045;-45
2021/04/12 03:52:36;;;;;;;7.22;6.18;;;;;;;4.34;95.33;101005.06;3563477;40;20788;-50
2021/04/12 03:55:38;;;;;;;8.60;6.82;;;;;;;4.51;94.89;101003.47;3572591;40;20080;-55
2021/04/12 03:58:10;;;;;;;9.77;7.10;;;;;;;4.10;96.87;101004.56;3558780;40;20081;-51
2021/04/12 04:01:08;;;;;;;11.88;7.75;;;;;;;4.15;96.40;101012.44;3569359;40;20468;-53
2021/04/12 04:04:16;;;;;;;6.80;6.10;;;;;;;4.21;95.79;101026.34;3569335;40;20446;-55
2021/04/12 04:07:00;;;;;;;7.30;6.10;;;;;;;4.14;96.30;101025.91;3570172;40;20060;-53
2021/04/12 04:10:03;;;;;;;10.40;6.10;;;;;;;4.21;96.31;101036.47;3573544;40;20142;-52
2021/04/12 04:12:58;;;;;;;10.07;7.03;;;;;;;3.75;98.50;101038.03;3573250;40;20064;-51
2021/04/12 04:16:08;;;;;;;9.85;6.60;;;;;;;4.42;96.59;101041.84;3568552;40;20549;-54
2021/04/12 04:18:58;;;;;;;11.15;6.72;;;;;;;4.44;95.61;101052.97;3569505;40;20065;-49
2021/04/12 04:22:02;;;;;;;8.82;6.70;;;;;;;4.44;94.33;101059.72;3570848;40;20040;-55
2021/04/12 04:25:03;;;;;;;8.13;7.05;;;;;;;4.20;95.96;101060.06;3568310;40;20057;-52
2021/04/12 04:27:57;;;;;;;9.68;8.18;;;;;;;3.96;98.75;101058.66;3572721;40;20793;-50
2021/04/12 04:30:52;;;;;;;12.75;7.88;;;;;;;4.26;96.20;101064.63;3568018;40;20052;-47
2021/04/12 04:33:55;;;;;;;10.65;7.97;;;;;;;4.19;97.46;101068.44;3566999;40;20108;-51
2021/04/12 04:36:45;;;;;;;11.27;8.10;;;;;;;4.53;96.10;101075.41;3568245;40;20077;-47
2021/04/12 04:39:42;;;;;;;9.15;7.50;;;;;;;4.47;96.62;101072.53;3566039;40;20089;-47
2021/04/12 04:42:13;;;;;;;9.98;7.75;;;;;;;4.29;96.93;101082.53;3565354;40;20045;-49
2021/04/12 04:45:22;;;;;;;8.40;7.50;;;;;;;4.22;97.18;101096.50;3571926;40;20692;-54
2021/04/12 04:48:07;;;;;;;10.25;6.80;;;;;;;4.58;95.93;101090.13;3572001;40;20033;-52
2021/04/12 04:50:53;;;;;;;7.40;6.03;;;;;;;4.19;96.54;101088.72;3572630;40;20116;-49
2021/04/12 04:53:31;;;;;;;7.55;6.55;;;;;;;4.26;97.23;101097.56;3566922;40;20153;-53
2021/04/12 04:56:09;;;;;;;8.57;7.03;;;;;;;4.24;96.11;101109.25;3572078;40;20509;-48
2021/04/12 04:58:55;;;;;;;8.60;6.28;;;;;;;4.31;97.08;101111.38;3572851;40;20049;-51
2021/04/12 05:01:27;;;;;;;9.15;6.28;;;;;;;4.21;96.59;101112.50;3566771;40;20565;-49
2021/04/12 05:04:11;;;;;;;7.70;6.00;;;;;;;4.54;95.43;101117.75;3571852;40;20101;-51
2021/04/12 05:06:50;;;;;;;9.10;6.10;;;;;;;4.34;94.76;101121.69;3568266;40;20123;-53
2021/04/12 05:09:45;;;;;;;8.38;6.38;;;;;;;4.27;95.65;101115.41;3559956;40;20537;-48
2021/04/12 05:12:40;;;;;;;8.18;6.32;;;;;;;4.21;97.23;101120.13;3565489;40;20061;-51
2021/04/12 05:15:13;;;;;;;9.68;6.40;;;;;;;4.15;96.58;101129.00;3568866;40;20160;-49
2021/04/12 05:18:10;;;;;;;8.68;6.25;;;;;;;4.49;96.04;101145.41;3570366;40;20056;-46
2021/04/12 05:20:55;;;;;;;7.72;6.50;;;;;;;4.46;97.10;101144.34;3568752;40;20052;-49
2021/04/12 05:23:33;;;;;;;6.43;5.35;;;;;;;4.56;95.89;101152.56;3567321;40;20057;-51
2021/04/12 05:26:00;;;;;;;9.32;6.55;;;;;;;4.41;95.75;101155.88;3572092;40;20068;-52
2021/04/12 05:29:02;;;;;;;6.97;6.10;;;;;;;4.56;95.79;101162.69;3572051;40;20176;-53
2021/04/12 05:31:59;;;;;;;6.43;5.80;;;;;;;4.61;94.16;101168.03;3567424;40;20064;-49
2021/04/12 05:34:53;;;;;;;;;;;;;;;4.26;95.70;101174.50;3573458;40;20405;-49
2021/04/12 05:37:54;;;;;;;7.43;5.95;;;;;;;4.38;95.11;101171.78;3571943;40;19969;-48
2021/04/12 05:40:39;;;;;;;7.93;6.55;;;;;;;4.76;91.92;101180.72;3566934;40;20065;-50
2021/04/12 05:43:15;;;;;;;6.22;5.63;;;;;;;4.54;92.84;101181.16;3572426;40;20045;-49
2021/04/12 05:46:19;;;;;;;6.63;5.95;;;;;;;4.68;91.84;101190.44;3571817;40;20143;-48
2021/04/12 05:49:22;;;;;;;7.25;5.82;;;;;;;4.28;94.17;101180.50;3571211;40;20073;-50
2021/04/12 05:52:13;;;;;;;9.38;5.72;;;;;;;4.40;94.60;101190.50;3571225;40;20056;-50
2021/04/12 05:55:21;;;;;;;8.23;6.05;;;;;;;4.65;93.57;101209.66;3571212;40;20052;-50
2021/04/12 05:58:31;;;;;;;8.23;5.80;;;;;;;4.56;94.37;101218.50;3571723;40;20066;-48
2021/04/12 06:01:00;;;;;;;7.18;5.35;;;;;;;4.66;92.97;101224.97;3571778;40;20073;-50
2021/04/12 06:04:04;;;;;;;8.88;5.60;;;;;;;4.78;90.97;101229.88;3570433;40;20067;-54
2021/04/12 06:06:57;;;;;;;6.65;5.72;;;;;;;4.73;92.69;101239.78;3567628;40;20049;-55
2021/04/12 06:09:46;;;;;;;6.35;5.60;;;;;;;4.92;90.79;101235.75;3558998;40;20054;-50
2021/04/12 06:12:32;;;;;;;5.13;4.47;;;;;;;4.81;89.42;101251.25;3557468;40;20045;-50
2021/04/12 06:15:11;;;;;;;5.65;4.07;;;;;;;5.00;89.11;101257.38;3560121;40;20093;-50
2021/04/12 06:18:15;;;;;;;4.97;4.50;;;;;;;5.07;89.17;101255.25;3560161;40;20065;-51
2021/04/12 06:21:19;;;;;;;5.00;4.50;;;;;;;4.88;89.18;101255.00;3561334;40;20053;-54
2021/04/12 06:23:54;;;;;;;6.72;5.72;;;;;;;4.71;89.24;101259.09;3562417;40;20058;-55
2021/04/12 06:26:41;;;;;;;6.18;3.92;;;;;;;4.86;85.28;101261.66;3562742;40;20103;-49
2021/04/12 06:29:17;;;;;;;3.85;3.55;;;;;;;4.67;85.07;101268.97;3561810;40;20045;-52
2021/04/12 06:31:43;;;;;;;3.95;3.50;;;;;;;4.69;85.90;101270.81;3562241;40;20093;-53
2021/04/12 06:34:48;;;;;;;5.80;3.70;;;;;;;4.68;85.58;101263.13;3563852;40;20037;-55
2021/04/12 06:37:54;;;;;;;5.25;3.03;;;;;;;4.73;85.89;101267.69;3564610;40;20063;-52
2021/04/12 06:40:30;;;;;;;4.90;3.28;;;;;;;4.79;87.04;101269.69;3563502;40;20306;-50
2021/04/12 06:43:28;;;;;;;4.18;3.33;;;;;;;4.89;85.48;101271.09;3571778;40;20073;-52
2021/04/12 06:46:17;;;;;;;4.63;3.70;;;;;;;4.98;85.52;101280.09;3570771;40;20664;-54
2021/04/12 06:49:02;;;;;;;3.80;3.35;;;;;;;5.13;85.46;101281.78;3572449;40;20083;-53
2021/04/12 06:51:47;;;;;;;4.53;3.65;;;;;;;5.28;84.13;101280.13;3573104;40;20065;-50
2021/04/12 06:54:50;;;;;;;4.05;3.58;;;;;;;5.17;82.90;101289.66;3566316;40;20150;-49
2021/04/12 06:57:23;;;;;;;5.20;3.20;;;;;;;5.22;82.62;101290.81;3566870;40;20072;-51
2021/04/12 07:00:23;;;;;;;4.68;3.50;;;;;;;5.27;83.03;101297.03;3572400;40;20061;-52
2021/04/12 07:03:18;;;;;;;3.67;3.15;;;;;;;5.49;83.62;101290.59;3572485;40;20051;-53
2021/04/12 07:06:25;;;;;;;4.07;3.17;;;;;;;5.44;82.60;101292.00;3566789;40;20037;-53
2021/04/12 07:09:31;;;;;;;3.85;2.45;;;;;;;5.53;80.54;101280.69;3560042;40;20053;-56
2021/04/12 07:12:41;;;;;;;2.92;2.28;;;;;;;5.95;78.71;101285.50;3560618;40;20704;-57
2021/04/12 07:15:32;;;;;;;2.88;2.00;;;;;;;5.70;78.45;101284.16;3560392;40;20046;-49
2021/04/12 07:18:45;;;;;;;4.30;1.95;;;;;;;5.66;80.12;101286.44;3560607;40;20585;-54
2021/04/12 07:21:47;;;;;;;3.35;1.90;;;;;;;6.07;78.14;101289.59;3559553;40;20339;-51
2021/04/12 07:24:35;;;;;;;2.72;1.83;;;;;;;6.00;76.93;101297.69;3560279;40;20049;-53
2021/04/12 07:27:28;;;;;;;3.70;1.88;;;;;;;5.84;76.33;101301.03;3563276;40;20051;-52
2021/04/12 07:30:32;;;;;;;3.75;2.03;;;;;;;5.77;75.91;101306.56;3572121;40;20056;-53
2021/04/12 07:33:15;;;;;;;4.10;2.75;;;;;;;5.92;78.11;101313.34;3571673;40;20497;-53
2021/04/12 07:36:11;;;;;;;2.83;2.00;;;;;;;5.76;79.93;101317.53;3570999;40;20076;-52
2021/04/12 07:39:15;;;;;;;2.30;1.70;;;;;;;6.11;76.35;101324.56;3571840;40;20134;-50
2021/04/12 07:42:07;;;;;;;3.05;2.03;;;;;;;5.73;77.15;101331.72;3569227;40;20063;-50
2021/04/12 07:45:16;;;;;;;3.83;2.35;;;;;;;6.05;75.94;101344.56;3572495;40;20048;-50
2021/04/12 07:48:06;;;;;;;3.80;2.00;;;;;;;5.98;74.33;101341.63;3568933;40;20642;-56
2021/04/12 07:51:10;;;;;;;3.38;2.10;;;;;;;6.29;75.45;101355.19;3570607;40;20089;-51
2021/04/12 07:53:52;;;;;;;3.30;1.98;;;;;;;6.01;74.41;101354.47;3568970;40;20065;-52
2021/04/12 07:56:39;;;;;;;5.50;2.40;;;;;;;5.82;73.53;101353.47;3566300;40;20312;-53
2021/04/12 07:59:51;;;;;;;3.47;2.10;;;;;;;6.29;75.78;101354.31;3572079;40;20053;-54
2021/04/12 08:02:44;;;;;;;2.80;2.10;;;;;;;6.02;74.76;101354.56;3564724;40;20038;-52
2021/04/12 08:05:32;;;;;;;4.00;1.70;;;;;;;6.32;71.80;101362.97;3562952;40;20049;-52
2021/04/12 08:08:46;;;;;;;2.20;2.00;;;;;;;6.26;73.92;101364.31;3563929;40;20073;-53
2021/04/12 08:12:03;;;;;;;6.00;2.20;;;;;;;6.64;71.06;101363.81;3563386;40;20056;-55
2021/04/12 08:14:42;;;;;;;;;;;;;;;6.99;71.94;101374.94;3562262;40;20083;-50
2021/04/12 08:17:47;;;;;;;3.53;1.70;;;;;;;6.70;70.78;101378.50;3559869;40;19995;-55
2021/04/12 08:20:49;;;;;;;3.45;1.95;;;;;;;7.32;68.94;101391.91;3566561;40;20057;-53
2021/04/12 08:23:37;;;;;;;2.97;1.60;;;;;;;7.30;66.67;101385.88;3533990;40;20047;-60
2021/04/12 08:26:30;;;;;;;2.08;1.45;;;;;;;7.83;66.35;101402.03;3567310;40;20059;-52
2021/04/12 08:29:35;;;;;;;5.80;2.22;;;;;;;7.48;65.71;101403.72;3571725;40;20064;-53
2021/04/12 08:32:41;;;;;;;4.28;2.08;;;;;;;7.57;66.47;101403.31;3570303;40;20402;-50
2021/04/12 08:35:41;;;;;;;2.67;1.63;;;;;;;7.28;67.73;101400.19;3557615;40;20088;-54
2021/04/12 08:38:47;;;;;;;3.20;1.80;;;;;;;7.23;68.72;101396.56;3569046;40;20511;-55
2021/04/12 08:41:31;;;;;;;4.88;2.00;;;;;;;7.13;68.32;101404.53;3570128;40;20082;-54
2021/04/12 08:44:31;;;;;;;7.68;2.97;;;;;;;7.40;69.73;101408.47;3571398;40;20045;-52
2021/04/12 08:47:21;;;;;;;5.03;1.70;;;;;;;7.06;69.42;101407.53;3571887;40;20094;-51
2021/04/12 08:50:04;;;;;;;4.03;1.67;;;;;;;7.58;66.78;101413.59;3571471;40;20080;-55
2021/04/12 08:53:01;;;;;;;4.30;1.80;;;;;;;8.10;66.11;101422.91;3572168;40;20045;-53
2021/04/12 08:55:56;;;;;;;8.48;4.60;;;;;;;8.45;64.70;101427.09;3567599;40;20403;-53
2021/04/12 08:58:59;;;;;;;2.75;1.25;;;;;;;7.75;62.74;101436.50;3566772;40;20079;-53
2021/04/12 09:02:08;;;;;;;3.38;1.83;;;;;;;7.99;63.08;101424.91;3567220;40;20063;-51
2021/04/12 09:04:58;;;;;;;3.92;1.40;;;;;;;8.38;64.50;101431.06;3566037;40;20069;-55
2021/04/12 09:07:28;;;;;;;10.32;4.35;;;;;;;8.34;63.66;101431.69;3560659;40;20045;-53
2021/04/12 09:10:09;;;;;;;6.05;2.40;;;;;;;8.62;62.25;101431.31;3570936;40;20060;-55
2021/04/12 09:12:46;;;;;;;3.58;1.67;;;;;;;8.30;62.85;101434.91;3572152;40;20048;-48
2021/04/12 09:15:26;;;;;;;5.80;1.98;;;;;;;8.70;62.10;101430.81;3565780;40;20788;-55
2021/04/12 09:18:16;;;;;;;2.78;1.83;;;;;;;8.18;63.64;101434.34;3572204;40;20113;-49
2021/04/12 09:21:17;;;;;;;2.65;1.20;;;;;;;8.17;61.55;101423.22;3572241;40;20122;-53
2021/04/12 09:23:47;;;;;;;4.20;1.40;;;;;;;9.21;58.53;101421.13;3572589;40;20089;-53
2021/04/12 09:26:47;;;;;;;4.47;1.40;;;;;;;8.96;59.33;101421.72;3572775;40;20057;-55
2021/04/12 09:29:35;;;;;;;4.88;1.90;;;;;;;9.48;58.32;101423.97;3565551;40;20053;-49
2021/04/12 09:32:40;;;;;;;3.33;1.38;;;;;;;9.64;58.17;101428.91;3571497;40;20385;-47
2021/04/12 09:35:52;;;;;;;3.45;1.30;;;;;;;9.29;56.77;101415.53;3556444;40;20049;-47
2021/04/12 09:38:36;;;;;;;4.25;1.50;;;;;;;9.10;58.76;101434.28;3571640;40;20045;-51
2021/04/12 09:41:11;;;;;;;3.17;1.50;;;;;;;9.82;55.65;101428.78;3571387;40;20072;-48
2021/04/12 09:43:47;;;;;;;3.50;1.30;;;;;;;9.86;57.79;101436.66;3571937;40;20142;-53
2021/04/12 09:46:44;;;;;;;4.60;1.80;;;;;;;9.03;58.31;101445.06;3565770;40;20114;-51
2021/04/12 09:49:36;;;;;;;3.45;1.20;;;;;;;9.44;56.73;101438.31;3565150;40;20396;-51
2021/04/12 09:52:24;;;;;;;2.85;1.02;;;;;;;9.73;56.96;101452.28;3571040;40;20061;-48
2021/04/12 09:55:12;;;;;;;3.00;1.00;;;;;;;10.41;55.27;101453.34;3571708;40;20034;-48
2021/04/12 09:58:19;;;;;;;3.28;1.27;;;;;;;10.29;53.42;101452.84;3572847;40;20051;-53
2021/04/12 10:01:16;;;;;;;1.08;0.88;;;;;;;10.03;55.81;101459.47;3572684;40;20045;-48
2021/04/12 10:03:52;;;;;;;4.20;1.08;;;;;;;10.42;52.04;101463.63;3572844;40;20080;-52
2021/04/12 10:06:37;;;;;;;2.17;1.10;;;;;;;10.07;54.79;101459.66;3573372;40;20048;-48
2021/04/12 10:09:29;;;;;;;3.08;1.25;;;;;;;10.08;53.83;101455.44;3572809;40;20052;-53
2021/04/12 10:12:04;;;;;;;3.13;1.30;;;;;;;9.88;55.47;101459.72;3571825;40;20073;-49
2021/04/12 10:14:37;;;;;;;5.13;1.13;;;;;;;9.80;57.93;101458.53;3573362;40;20064;-49
2021/04/12 10:17:15;;;;;;;3.10;0.90;;;;;;;9.92;53.11;101459.91;3572932;40;20134;-52
2021/04/12 10:19:49;;;;;;;2.95;1.40;;;;;;;10.48;53.45;101457.88;3572643;40;20041;-51
2021/04/12 10:22:20;;;;;;;2.58;1.00;;;;;;;11.04;52.25;101461.66;3567351;40;20093;-52
2021/04/12 10:24:59;;;;;;;3.15;0.93;;;;;;;12.25;47.84;101468.38;3572601;40;20075;-51
2021/04/12 10:27:29;;;;;;;4.82;1.05;;;;;;;12.38;47.54;101474.72;3573364;40;20040;-51
2021/04/12 10:30:25;;;;;;;3.17;1.10;;;;;;;12.40;49.07;101479.09;3572878;40;20060;-55
2021/04/12 10:33:00;;;;;;;2.60;1.48;;;;;;;11.68;48.85;101486.13;3572453;40;20048;-51
2021/04/12 10:35:37;;;;;;;2.08;1.08;;;;;;;11.73;48.52;101482.88;3572904;40;20410;-52
2021/04/12 10:38:22;;;;;;;3.53;1.10;;;;;;;11.94;49.28;101481.91;3572601;40;20067;-54
2021/04/12 10:41:28;;;;;;;2.55;1.35;;;;;;;11.69;50.68;101488.75;3572793;40;20056;-52
2021/04/12 10:44:31;;;;;;;4.17;1.70;;;;;;;11.45;47.33;101485.34;3573418;40;20071;-51
2021/04/12 10:47:06;;;;;;;3.78;1.50;;;;;;;11.04;48.76;101492.41;3573027;40;20038;-51
2021/04/12 10:49:45;;;;;;;2.07;1.10;;;;;;;10.66;49.33;101493.56;3573267;40;20064;-50
2021/04/12 10:52:24;;;;;;;4.30;1.90;;;;;;;10.73;50.06;101494.69;3566339;40;20271;-54
2021/04/12 10:55:21;;;;;;;2.78;1.35;;;;;;;10.47;51.62;101501.34;3572912;40;20073;-50
2021/04/12 10:58:22;;;;;;;;;;;;;;;10.39;50.58;101503.59;3573702;40;20083;-53
2021/04/12 11:01:10;;;;;;;2.78;1.33;;;;;;;10.22;51.59;101500.34;3565014;40;19969;-52
2021/04/12 11:04:22;;;;;;;1.98;1.50;;;;;;;9.80;52.09;101502.00;3573898;40;20075;-58
2021/04/12 11:06:52;;;;;;;5.05;1.40;;;;;;;9.76;53.93;101506.16;3572107;40;20053;-52
2021/04/12 11:09:41;;;;;;;2.38;1.40;;;;;;;9.72;55.02;101501.72;3573180;40;20048;-52
2021/04/12 11:12:49;;;;;;;4.55;1.52;;;;;;;9.13;56.05;101507.66;3570089;40;20087;-51
2021/04/12 11:15:58;;;;;;;3.15;1.45;;;;;;;9.21;55.56;101506.31;3566446;40;20056;-53
2021/04/12 11:18:30;;;;;;;5.35;1.75;;;;;;;9.66;53.22;101502.34;3567956;40;20052;-55
2021/04/12 11:21:26;;;;;;;4.03;1.30;;;;;;;9.78;51.62;101498.53;3572601;40;20355;-57
2021/04/12 11:23:55;;;;;;;3.05;1.50;;;;;;;9.63;52.83;101509.88;3571871;40;20391;-52
2021/04/12 11:26:28;;;;;;;3.92;1.30;;;;;;;9.07;53.87;101509.94;3572931;40;20040;-50
2021/04/12 11:29:22;;;;;;;3.67;1.23;;;;;;;8.95;54.54;101512.81;3572466;40;20083;-52
2021/04/12 11:34:48;;;;;;;1.95;1.10;;;;;;;9.35;54.84;101512.03;3569191;40;20137;-84
2021/04/12 11:37:48;;;;;;;4.00;1.42;;;;;;;9.21;55.07;101519.09;3540867;40;20743;-87
2021/04/12 11:40:20;;;;;;;5.22;1.00;;;;;;;9.44;54.86;101515.88;3583881;23;20045;-47
2021/04/12 11:43:15;;;;;;;4.28;1.05;;;;;;;9.31;53.58;101508.47;3563844;40;20053;-46
2021/04/12 11:45:53;;;;;;;2.63;0.88;;;;;;;9.51;53.67;101516.13;3562445;40;20060;-48
2021/04/12 11:48:25;;;;;;;5.88;1.38;;;;;;;9.87;53.29;101520.25;3563486;40;20057;-50
2021/04/12 11:50:55;;;;;;;4.47;1.02;;;;;;;9.74;54.09;101524.78;3563277;40;20178;-49
2021/04/12 11:53:27;;;;;;;2.17;1.00;;;;;;;9.97;51.03;101521.50;3563100;40;20081;-49
2021/04/12 11:56:30;;;;;;;4.72;1.13;;;;;;;9.24;52.57;101520.91;3563072;40;20095;-46
2021/04/12 11:59:12;;;;;;;1.85;1.10;;;;;;;9.70;49.77;101528.88;3563003;40;20418;-48
2021/04/12 12:01:43;;;;;;;2.25;1.02;;;;;;;9.53;51.24;101528.19;3563443;40;20097;-47
2021/04/12 12:04:31;;;;;;;3.55;1.00;;;;;;;9.33;51.44;101539.19;3559895;40;20422;-48
2021/04/12 12:07:25;;;;;;;2.33;0.80;;;;;;;9.38;50.23;101530.03;3563130;40;20061;-48
2021/04/12 12:10:05;;;;;;;2.28;0.90;;;;;;;9.14;53.17;101542.63;3564252;40;20073;-54
2021/04/12 12:12:55;;;;;;;2.30;0.82;;;;;;;8.73;55.31;101533.94;3563640;40;20045;-51
2021/04/12 12:15:27;;;;;;;2.47;1.02;;;;;;;8.90;52.82;101540.69;3561096;40;20053;-50
2021/04/12 12:18:05;;;;;;;3.72;0.88;;;;;;;8.80;52.23;101551.28;3562894;40;20076;-52
2021/04/12 12:21:18;;;;;;;3.20;1.15;;;;;;;8.81;53.31;101550.50;3563062;40;20135;-48
2021/04/12 12:23:55;;;;;;;4.50;0.90;;;;;;;9.05;53.85;101552.41;3553956;40;20626;-49
2021/04/12 12:26:39;;;;;;;3.10;0.95;;;;;;;8.98;52.93;101547.84;3563273;40;20497;-51
2021/04/12 12:29:11;;;;;;;2.50;1.00;;;;;;;9.34;52.72;101554.63;3560543;40;20041;-49
2021/04/12 12:32:06;;;;;;;2.40;0.80;;;;;;;9.44;51.99;101550.78;3564026;40;20522;-53
2021/04/12 12:34:54;;;;;;;2.75;0.93;;;;;;;9.91;51.83;101565.63;3562506;40;20049;-52
2021/04/12 12:37:42;;;;;;;2.40;0.90;;;;;;;10.41;48.46;101569.44;3560498;40;20749;-48
2021/04/12 12:40:20;;;;;;;5.95;1.23;;;;;;;10.75;45.12;101565.63;3564094;40;20037;-50
2021/04/12 12:43:00;;;;;;;3.63;0.90;;;;;;;11.07;46.36;101564.31;3568529;40;20574;-50
2021/04/12 12:45:39;;;;;;;2.10;0.95;;;;;;;11.42;47.85;101567.31;3563504;40;20072;-52
2021/04/12 12:48:12;;;;;;;;;;;;;;;10.38;46.74;101568.44;3562768;40;20084;-53
2021/04/12 12:50:53;;;;;;;4.40;1.45;;;;;;;11.06;46.52;101572.81;3563471;40;19973;-52
2021/04/12 12:53:28;;;;;;;7.15;1.00;;;;;;;13.12;41.40;101575.47;3560245;40;20391;-50
2021/04/12 12:56:14;;;;;;;2.15;0.90;;;;;;;13.70;40.70;101575.47;3562711;40;20053;-54
2021/04/12 12:59:07;;;;;;;2.05;0.80;;;;;;;13.75;40.10;101589.34;3563245;40;20056;-50
2021/04/12 13:01:42;;;;;;;1.55;0.77;;;;;;;13.10;41.51;101595.16;3560974;40;20517;-49
2021/04/12 13:04:28;;;;;;;2.38;0.70;;;;;;;14.25;37.43;101586.34;3559577;40;20057;-50
2021/04/12 13:07:09;;;;;;;2.35;0.88;;;;;;;13.62;38.34;101588.94;3562967;40;20053;-46
2021/04/12 13:09:39;;;;;;;5.28;1.20;;;;;;;13.78;36.41;101582.53;3565201;40;20361;-48
2021/04/12 13:12:08;;;;;;;2.53;0.90;;;;;;;12.95;37.94;101590.44;3566156;40;20137;-46
2021/04/12 13:14:42;;;;;;;1.90;0.60;;;;;;;12.18;40.57;101589.66;3562879;40;20405;-45
2021/04/12 13:17:27;;;;;;;3.13;0.60;;;;;;;11.82;42.06;101582.44;3559291;40;20057;-46